createdAt,value
2023-05-18T00:02:16.196Z,47.50
2023-05-18T00:04:44.769Z,44.30
2023-05-18T00:07:12.724Z,44.30
2023-05-18T00:09:41.287Z,45.50
2023-05-18T00:12:09.981Z,43.90
2023-05-18T00:14:37.058Z,45.40
2023-05-18T00:17:07.195Z,45.40
2023-05-18T00:19:34.645Z,47.70
2023-05-18T00:22:02.822Z,47.40
2023-05-18T00:24:30.316Z,49.40
2023-05-18T00:26:57.378Z,52.90
2023-05-18T00:29:24.434Z,53.80
2023-05-18T00:31:51.809Z,54.60
2023-05-18T00:34:20.234Z,55.70
2023-05-18T00:36:47.586Z,57.50
2023-05-18T00:39:14.888Z,57.80
2023-05-18T00:41:42.034Z,59.60
2023-05-18T00:44:09.372Z,60.50
2023-05-18T00:46:36.625Z,59.90
2023-05-18T00:49:04.746Z,61.20
2023-05-18T00:51:34.925Z,61.60
2023-05-18T00:54:04.686Z,63.10
2023-05-18T00:56:34.385Z,61.50
2023-05-18T00:59:04.068Z,61.80
2023-05-18T01:01:35.186Z,62.40
2023-05-18T01:04:06.380Z,62.50
2023-05-18T01:06:36.362Z,61.40
2023-05-18T01:09:05.551Z,62.10
2023-05-18T01:11:34.694Z,62.80
2023-05-18T01:14:05.125Z,64.50
2023-05-18T01:16:37.671Z,65.00
2023-05-18T01:19:07.891Z,63.60
2023-05-18T01:21:55.966Z,62.80
2023-05-18T01:24:26.413Z,62.80
2023-05-18T01:26:57.842Z,63.10
2023-05-18T01:29:27.357Z,64.00
2023-05-18T01:31:54.660Z,65.70
2023-05-18T01:34:22.660Z,68.40
2023-05-18T01:36:49.919Z,69.70
2023-05-18T01:39:17.181Z,71.50
2023-05-18T01:41:55.907Z,73.90
2023-05-18T01:44:23.552Z,75.10
2023-05-18T01:46:56.276Z,75.80
2023-05-18T01:49:29.085Z,77.20
2023-05-18T01:51:56.901Z,78.30
2023-05-18T01:54:24.333Z,79.60
2023-05-18T01:56:52.526Z,79.00
2023-05-18T01:59:20.806Z,78.60
2023-05-18T02:01:48.219Z,77.80
2023-05-18T02:04:16.357Z,77.90
2023-05-18T02:06:43.656Z,78.50
2023-05-18T02:09:11.427Z,79.40
2023-05-18T02:11:39.256Z,79.30
2023-05-18T02:14:06.610Z,78.90
2023-05-18T02:16:35.011Z,78.30
2023-05-18T02:19:07.017Z,78.40
2023-05-18T02:21:35.687Z,78.90
2023-05-18T02:24:04.616Z,80.30
2023-05-18T02:26:32.007Z,80.50
2023-05-18T02:29:00.331Z,81.40
2023-05-18T02:31:30.539Z,82.20
2023-05-18T02:33:58.515Z,81.40
2023-05-18T02:36:25.689Z,80.10
2023-05-18T02:38:53.207Z,79.90
2023-05-18T02:41:21.179Z,80.20
2023-05-18T02:43:48.624Z,79.20
2023-05-18T02:46:16.664Z,76.80
2023-05-18T02:48:46.150Z,78.30
2023-05-18T02:51:13.472Z,78.70
2023-05-18T02:53:41.070Z,76.70
2023-05-18T02:56:12.583Z,76.50
2023-05-18T02:59:09.317Z,77.60
2023-05-18T03:01:43.177Z,79.50
2023-05-18T03:04:12.032Z,80.90
2023-05-18T03:06:46.723Z,80.80
2023-05-18T03:09:16.269Z,81.30
2023-05-18T03:11:45.043Z,80.80
2023-05-18T03:14:13.152Z,81.90
2023-05-18T03:16:40.897Z,83.40
2023-05-18T03:19:14.546Z,81.10
2023-05-18T03:21:42.723Z,80.80
2023-05-18T03:24:10.151Z,81.70
2023-05-18T03:26:42.225Z,82.20
2023-05-18T03:29:09.718Z,83.30
2023-05-18T03:31:37.008Z,84.10
2023-05-18T03:34:04.249Z,83.90
2023-05-18T03:36:31.942Z,84.10
2023-05-18T03:38:59.795Z,84.90
2023-05-18T03:41:30.377Z,84.80
2023-05-18T03:44:00.306Z,84.60
2023-05-18T03:46:28.626Z,86.40
2023-05-18T03:48:56.183Z,87.70
2023-05-18T03:51:31.067Z,88.80
2023-05-18T03:53:58.482Z,89.60
2023-05-18T03:56:26.204Z,89.20
2023-05-18T03:58:53.749Z,89.70
2023-05-18T04:01:23.935Z,89.20
2023-05-18T04:03:52.380Z,90.50
2023-05-18T04:06:22.840Z,91.10
2023-05-18T04:08:50.755Z,91.40
2023-05-18T04:11:17.926Z,91.70
2023-05-18T04:13:45.368Z,92.90
2023-05-18T04:16:13.678Z,93.10
2023-05-18T04:18:42.254Z,94.30
2023-05-18T04:21:09.764Z,94.80
2023-05-18T04:23:39.588Z,95.40
2023-05-18T04:26:07.865Z,94.90
2023-05-18T04:28:35.108Z,95.20
2023-05-18T04:31:02.921Z,95.30
2023-05-18T04:33:30.207Z,95.50
2023-05-18T04:35:58.985Z,95.10
2023-05-18T04:38:26.690Z,95.90
2023-05-18T04:40:54.097Z,96.40
2023-05-18T04:43:22.428Z,96.30
2023-05-18T04:45:51.904Z,96.20
2023-05-18T04:48:20.359Z,96.40
2023-05-18T04:50:48.906Z,97.20
2023-05-18T04:53:19.997Z,97.90
2023-05-18T04:55:50.213Z,97.90
2023-05-18T04:58:17.639Z,98.20
2023-05-18T05:00:47.264Z,98.40
2023-05-18T05:03:14.955Z,98.40
2023-05-18T05:05:42.265Z,98.80
2023-05-18T05:08:09.840Z,98.20
2023-05-18T05:10:37.633Z,98.10
2023-05-18T05:13:04.964Z,97.70
2023-05-18T05:15:33.649Z,97.80
2023-05-18T05:18:01.024Z,97.90
2023-05-18T05:20:29.024Z,98.40
2023-05-18T05:22:56.596Z,98.10
2023-05-18T05:25:27.730Z,98.00
2023-05-18T05:27:55.427Z,97.00
2023-05-18T05:30:22.589Z,96.60
2023-05-18T05:32:49.944Z,96.50
2023-05-18T05:35:17.933Z,94.90
2023-05-18T05:37:49.225Z,94.70
2023-05-18T05:40:17.141Z,93.50
2023-05-18T05:42:46.652Z,94.00
2023-05-18T05:45:14.014Z,93.60
2023-05-18T05:47:46.646Z,93.80
2023-05-18T05:50:15.621Z,94.50
2023-05-18T05:52:43.376Z,91.60
2023-05-18T05:55:11.545Z,90.80
2023-05-18T05:57:42.905Z,88.90
2023-05-18T06:00:11.430Z,88.90
2023-05-18T06:02:59.024Z,86.30
2023-05-18T06:05:38.049Z,82.20
2023-05-18T06:08:09.443Z,81.30
2023-05-18T06:10:36.670Z,80.80
2023-05-18T06:13:04.822Z,79.70
2023-05-18T06:15:40.226Z,80.70
2023-05-18T06:18:07.977Z,79.00
2023-05-18T06:20:35.996Z,75.60
2023-05-18T06:23:04.061Z,71.00
2023-05-18T06:25:50.219Z,71.30
2023-05-18T06:28:28.819Z,72.80
2023-05-18T06:31:06.157Z,70.90
2023-05-18T06:33:47.037Z,64.20
2023-05-18T06:36:15.873Z,61.80
2023-05-18T06:38:43.179Z,64.90
2023-05-18T06:41:10.894Z,64.20
2023-05-18T06:43:38.119Z,61.40
2023-05-18T06:46:23.911Z,62.90
2023-05-18T06:48:55.492Z,57.80
2023-05-18T06:51:22.732Z,56.90
2023-05-18T06:53:50.713Z,55.70
2023-05-18T06:56:19.105Z,51.60
2023-05-18T06:58:47.367Z,46.90
2023-05-18T07:01:15.533Z,39.70
2023-05-18T07:03:42.873Z,36.60
2023-05-18T07:06:10.099Z,43.90
2023-05-18T07:08:37.347Z,54.20
2023-05-18T07:11:04.590Z,56.30
2023-05-18T07:13:31.801Z,52.70
2023-05-18T07:15:59.107Z,49.80
2023-05-18T07:18:26.749Z,44.70
2023-05-18T07:20:54.073Z,43.20
2023-05-18T07:23:21.535Z,33.20
2023-05-18T07:25:49.273Z,25.20
2023-05-18T07:28:16.598Z,23.70
2023-05-18T07:30:44.107Z,19.30
2023-05-18T07:33:11.402Z,26.60
2023-05-18T07:35:38.792Z,28.20
2023-05-18T07:38:06.390Z,26.90
2023-05-18T07:40:34.655Z,34.40
2023-05-18T07:43:02.689Z,30.50
2023-05-18T07:45:30.734Z,12.70
2023-05-18T07:47:58.742Z,13.20
2023-05-18T07:50:26.893Z,12.90
2023-05-18T07:52:54.285Z,6.30
2023-05-18T07:55:21.436Z,6.80
2023-05-18T07:57:48.620Z,4.60
2023-05-18T08:00:19.939Z,1.00
2023-05-18T08:02:47.391Z,1.00
2023-05-18T08:05:14.644Z,1.00
2023-05-18T08:07:43.639Z,1.00
2023-05-18T08:10:11.609Z,1.00
2023-05-18T08:12:38.796Z,1.00
2023-05-18T08:15:06.475Z,1.00
2023-05-18T08:17:34.670Z,1.00
2023-05-18T08:20:21.878Z,1.00
2023-05-18T08:23:01.517Z,1.00
2023-05-18T08:25:35.061Z,1.00
2023-05-18T08:28:06.870Z,1.00
2023-05-18T08:30:37.558Z,1.00
2023-05-18T08:33:04.915Z,1.00
2023-05-18T08:35:33.197Z,1.00
2023-05-18T08:38:04.072Z,1.00
2023-05-18T08:41:05.549Z,1.00
2023-05-18T08:43:34.105Z,1.00
2023-05-18T08:46:06.769Z,1.00
2023-05-18T08:48:34.701Z,1.00
2023-05-18T08:51:06.035Z,1.00
2023-05-18T08:53:43.323Z,1.00
2023-05-18T08:56:11.744Z,1.00
2023-05-18T08:58:45.055Z,1.00
2023-05-18T09:01:12.518Z,1.00
2023-05-18T09:03:40.222Z,1.00
2023-05-18T09:06:07.518Z,1.00
2023-05-18T09:08:34.949Z,1.00
2023-05-18T09:11:05.213Z,1.00
2023-05-18T09:13:34.828Z,1.00
2023-05-18T09:16:02.712Z,1.00
2023-05-18T09:18:30.322Z,1.00
2023-05-18T09:21:02.111Z,1.00
2023-05-18T09:23:29.860Z,1.00
2023-05-18T09:25:57.265Z,1.00
2023-05-18T09:28:28.303Z,1.00
2023-05-18T09:30:55.836Z,1.00
2023-05-18T09:33:23.709Z,1.00
2023-05-18T09:35:52.103Z,1.00
2023-05-18T09:38:22.368Z,1.00
2023-05-18T09:40:50.141Z,1.00
2023-05-18T09:43:18.393Z,1.00
2023-05-18T09:45:46.190Z,1.00
2023-05-18T09:48:16.788Z,1.00
2023-05-18T09:50:48.857Z,1.00
2023-05-18T09:53:17.167Z,1.00
2023-05-18T09:55:48.178Z,1.00
2023-05-18T09:58:16.548Z,1.00
2023-05-18T10:00:47.676Z,1.00
2023-05-18T10:03:18.808Z,1.00
2023-05-18T10:05:47.297Z,1.00
2023-05-18T10:08:20.346Z,1.00
2023-05-18T10:10:59.865Z,1.00
2023-05-18T10:13:32.020Z,1.00
2023-05-18T10:16:01.039Z,1.00
2023-05-18T10:18:39.427Z,1.00
2023-05-18T10:21:10.040Z,1.00
2023-05-18T10:23:37.354Z,1.00
2023-05-18T10:26:05.769Z,1.00
2023-05-18T10:28:44.758Z,1.00
2023-05-18T10:31:12.716Z,1.00
2023-05-18T10:33:40.540Z,1.00
2023-05-18T10:36:08.213Z,1.00
2023-05-18T10:38:36.238Z,1.00
2023-05-18T10:41:04.183Z,1.00
2023-05-18T10:43:31.987Z,1.00
2023-05-18T10:46:00.321Z,1.00
2023-05-18T10:48:28.218Z,1.00
2023-05-18T10:50:57.012Z,1.00
2023-05-18T10:53:24.692Z,1.00
2023-05-18T10:55:52.146Z,1.00
2023-05-18T10:58:20.216Z,1.00
2023-05-18T11:00:52.070Z,1.00
2023-05-18T11:03:20.244Z,1.00
2023-05-18T11:05:52.255Z,1.00
2023-05-18T11:08:28.728Z,1.00
2023-05-18T11:11:03.915Z,1.00
2023-05-18T11:13:31.677Z,1.00
2023-05-18T11:16:05.430Z,1.00
2023-05-18T11:18:36.699Z,1.00
2023-05-18T11:21:04.441Z,1.00
2023-05-18T11:23:34.099Z,1.00
2023-05-18T11:26:04.856Z,1.00
2023-05-18T11:28:33.996Z,1.00
2023-05-18T11:31:01.189Z,1.00
2023-05-18T11:33:29.484Z,1.00
2023-05-18T11:35:57.125Z,1.00
2023-05-18T11:38:28.119Z,1.00
2023-05-18T11:40:55.513Z,1.00
2023-05-18T11:43:23.231Z,1.00
2023-05-18T11:45:59.802Z,1.00
2023-05-18T11:48:27.533Z,1.00
2023-05-18T11:50:57.778Z,1.00
2023-05-18T11:53:25.980Z,1.00
2023-05-18T11:55:56.676Z,1.00
2023-05-18T11:58:27.351Z,1.00
2023-05-18T12:00:54.695Z,1.00
2023-05-18T12:03:26.299Z,1.00
2023-05-18T12:05:53.542Z,1.00
2023-05-18T12:08:21.319Z,1.00
2023-05-18T12:10:51.240Z,1.00
2023-05-18T12:13:20.444Z,1.00
2023-05-18T12:15:50.174Z,1.00
2023-05-18T12:18:19.442Z,1.00
2023-05-18T12:20:51.014Z,1.00
2023-05-18T12:23:20.943Z,1.00
2023-05-18T12:25:49.191Z,1.00
2023-05-18T12:28:17.441Z,1.00
2023-05-18T12:30:44.871Z,1.00
2023-05-18T12:33:12.587Z,1.00
2023-05-18T12:35:43.273Z,1.00
2023-05-18T12:38:10.730Z,1.00
2023-05-18T12:40:49.476Z,1.00
2023-05-18T12:43:16.763Z,1.00
2023-05-18T12:45:44.594Z,1.00
2023-05-18T12:48:12.731Z,1.00
2023-05-18T12:50:47.081Z,1.00
2023-05-18T12:53:14.240Z,1.00
2023-05-18T12:55:41.864Z,1.00
2023-05-18T12:58:17.132Z,1.00
2023-05-18T13:00:48.250Z,1.00
2023-05-18T13:03:16.492Z,1.00
2023-05-18T13:05:46.133Z,1.00
2023-05-18T13:08:20.456Z,1.00
2023-05-18T13:10:55.237Z,1.00
2023-05-18T13:13:29.959Z,1.00
2023-05-18T13:15:59.915Z,1.00
2023-05-18T13:18:27.866Z,1.00
2023-05-18T13:20:56.718Z,1.00
2023-05-18T13:23:24.707Z,1.00
2023-05-18T13:25:52.428Z,1.00
2023-05-18T13:28:20.165Z,1.00
2023-05-18T13:30:51.600Z,1.00
2023-05-18T13:33:19.671Z,1.00
2023-05-18T13:35:49.069Z,1.00
2023-05-18T13:38:16.430Z,1.00
2023-05-18T13:40:44.533Z,1.00
2023-05-18T13:43:13.693Z,1.00
2023-05-18T13:45:42.597Z,1.00
2023-05-18T13:48:11.002Z,1.00
2023-05-18T13:50:40.166Z,1.00
2023-05-18T13:53:07.428Z,1.00
2023-05-18T13:55:35.103Z,1.00
2023-05-18T13:58:02.980Z,1.00
2023-05-18T14:00:34.221Z,1.00
2023-05-18T14:03:01.965Z,1.00
2023-05-18T14:05:30.022Z,1.00
2023-05-18T14:07:57.194Z,1.00
2023-05-18T14:10:24.358Z,1.00
2023-05-18T14:12:51.672Z,1.00
2023-05-18T14:15:19.481Z,1.00
2023-05-18T14:17:47.666Z,1.00
2023-05-18T14:20:18.493Z,1.00
2023-05-18T14:22:46.003Z,1.00
2023-05-18T14:25:13.628Z,1.00
2023-05-18T14:27:41.067Z,1.00
2023-05-18T14:30:08.675Z,1.00
2023-05-18T14:32:36.106Z,1.00
2023-05-18T14:35:05.017Z,1.00
2023-05-18T14:37:33.777Z,1.00
2023-05-18T14:40:01.596Z,1.00
2023-05-18T14:42:36.654Z,1.00
2023-05-18T14:45:07.514Z,1.00
2023-05-18T14:47:44.825Z,1.00
2023-05-18T14:50:12.240Z,1.00
2023-05-18T14:52:39.792Z,1.00
2023-05-18T14:55:07.147Z,1.00
2023-05-18T14:57:34.508Z,1.00
2023-05-18T15:00:01.801Z,1.00
2023-05-18T15:02:29.773Z,1.00
2023-05-18T15:04:57.246Z,1.00
2023-05-18T15:07:24.565Z,1.00
2023-05-18T15:09:52.129Z,1.00
2023-05-18T15:12:20.011Z,1.00
2023-05-18T15:14:47.794Z,1.00
2023-05-18T15:17:15.343Z,1.00
2023-05-18T15:19:42.449Z,1.00
2023-05-18T15:22:09.916Z,1.00
2023-05-18T15:24:37.076Z,1.00
2023-05-18T15:27:04.740Z,1.00
2023-05-18T15:29:33.282Z,1.00
2023-05-18T15:32:01.304Z,1.00
2023-05-18T15:34:28.548Z,1.00
2023-05-18T15:36:55.706Z,1.00
2023-05-18T15:39:23.141Z,1.00
2023-05-18T15:41:50.522Z,1.00
2023-05-18T15:44:18.137Z,1.00
2023-05-18T15:46:45.630Z,1.00
2023-05-18T15:49:13.076Z,1.00
2023-05-18T15:51:40.729Z,1.00
2023-05-18T15:54:08.025Z,1.00
2023-05-18T15:56:35.400Z,1.00
2023-05-18T15:59:03.042Z,1.00
2023-05-18T16:01:30.306Z,1.00
2023-05-18T16:03:57.827Z,1.00
2023-05-18T16:06:25.139Z,1.00
2023-05-18T16:08:52.981Z,1.00
2023-05-18T16:11:20.072Z,1.00
2023-05-18T16:13:56.577Z,1.00
2023-05-18T16:16:24.484Z,1.00
2023-05-18T16:18:52.048Z,1.00
2023-05-18T16:21:19.848Z,1.00
2023-05-18T16:23:47.437Z,1.00
2023-05-18T16:26:15.435Z,1.00
2023-05-18T16:28:42.732Z,1.00
2023-05-18T16:31:11.924Z,1.00
2023-05-18T16:33:39.199Z,1.00
2023-05-18T16:36:06.848Z,1.00
2023-05-18T16:38:39.103Z,1.00
2023-05-18T16:41:07.114Z,1.00
2023-05-18T16:43:37.288Z,1.00
2023-05-18T16:46:07.453Z,1.00
2023-05-18T16:48:35.147Z,1.00
2023-05-18T16:51:07.464Z,1.00
2023-05-18T16:53:34.930Z,1.00
2023-05-18T16:56:06.433Z,1.00
2023-05-18T16:58:34.914Z,1.00
2023-05-18T17:01:09.828Z,1.00
2023-05-18T17:03:43.550Z,1.00
2023-05-18T17:06:11.359Z,1.00
2023-05-18T17:08:38.780Z,1.00
2023-05-18T17:11:05.868Z,1.00
2023-05-18T17:13:33.428Z,1.00
2023-05-18T17:16:00.797Z,1.00
2023-05-18T17:18:28.085Z,1.00
2023-05-18T17:20:55.361Z,1.00
2023-05-18T17:23:22.658Z,1.00
2023-05-18T17:25:50.560Z,1.00
2023-05-18T17:28:20.208Z,1.00
2023-05-18T17:30:47.782Z,1.00
2023-05-18T17:33:15.307Z,1.00
2023-05-18T17:35:43.512Z,1.00
2023-05-18T17:38:10.667Z,1.00
2023-05-18T17:40:38.287Z,1.00
2023-05-18T17:43:06.141Z,1.00
2023-05-18T17:45:33.685Z,1.00
2023-05-18T17:48:00.948Z,1.00
2023-05-18T17:50:28.267Z,1.00
2023-05-18T17:52:55.549Z,1.00
2023-05-18T17:55:22.689Z,1.00
2023-05-18T17:57:50.262Z,1.00
2023-05-18T18:00:27.147Z,1.00
2023-05-18T18:02:55.444Z,1.00
2023-05-18T18:05:47.083Z,1.00
2023-05-18T18:08:19.795Z,1.00
2023-05-18T18:11:01.794Z,1.00
2023-05-18T18:13:30.100Z,1.00
2023-05-18T18:16:01.210Z,1.00
2023-05-18T18:18:28.435Z,1.00
2023-05-18T18:20:55.857Z,1.00
2023-05-18T18:23:23.241Z,1.00
2023-05-18T18:25:55.305Z,1.00
2023-05-18T18:28:22.997Z,1.00
2023-05-18T18:30:53.018Z,1.00
2023-05-18T18:33:21.086Z,1.00
2023-05-18T18:36:07.954Z,1.00
2023-05-18T18:38:53.373Z,1.00
2023-05-18T18:41:46.327Z,1.00
2023-05-18T18:44:16.317Z,1.00
2023-05-18T18:46:43.848Z,1.00
2023-05-18T18:49:11.563Z,1.00
2023-05-18T18:51:41.917Z,1.00
2023-05-18T18:54:09.995Z,1.00
2023-05-18T18:56:40.815Z,1.00
2023-05-18T18:59:15.526Z,1.00
2023-05-18T19:01:46.888Z,1.00
2023-05-18T19:07:44.813Z,1.00
2023-05-18T19:10:12.273Z,1.00
2023-05-18T19:12:40.004Z,1.00
2023-05-18T19:15:07.924Z,1.00
2023-05-18T19:17:35.635Z,1.00
2023-05-18T19:20:03.044Z,1.00
2023-05-18T19:22:32.996Z,1.00
2023-05-18T19:25:00.899Z,1.00
2023-05-18T19:27:27.971Z,1.00
2023-05-18T19:29:55.732Z,1.00
2023-05-18T19:32:25.471Z,1.50
2023-05-18T19:34:54.010Z,1.00
2023-05-18T19:37:21.639Z,1.80
2023-05-18T19:39:49.231Z,4.80
2023-05-18T19:42:16.740Z,2.60
2023-05-18T19:44:44.117Z,4.90
2023-05-18T19:47:12.531Z,5.40
2023-05-18T19:49:39.878Z,6.00
2023-05-18T19:52:09.786Z,6.90
2023-05-18T19:54:37.226Z,7.10
2023-05-18T19:57:04.950Z,7.20
2023-05-18T19:59:34.825Z,9.30
2023-05-18T20:02:05.051Z,9.90
2023-05-18T20:04:34.259Z,9.00
2023-05-18T20:07:01.768Z,8.60
2023-05-18T20:09:32.724Z,10.80
2023-05-18T20:11:59.959Z,9.70
2023-05-18T20:14:27.423Z,10.10
2023-05-18T20:16:56.487Z,10.20
2023-05-18T20:19:24.033Z,9.80
2023-05-18T20:21:51.537Z,10.40
2023-05-18T20:24:18.972Z,11.00
2023-05-18T20:26:46.038Z,12.60
2023-05-18T20:29:13.390Z,12.30
2023-05-18T20:31:41.455Z,12.70
2023-05-18T20:34:10.183Z,13.60
2023-05-18T20:36:37.607Z,13.70
2023-05-18T20:39:10.318Z,15.00
2023-05-18T20:41:40.437Z,14.30
2023-05-18T20:44:12.037Z,14.80
2023-05-18T20:46:42.907Z,15.70
2023-05-18T20:49:14.510Z,16.20
2023-05-18T20:51:42.551Z,15.60
2023-05-18T20:54:09.814Z,16.20
2023-05-18T20:56:37.129Z,16.90
2023-05-18T20:59:06.113Z,18.00
2023-05-18T21:01:40.063Z,18.90
2023-05-18T21:04:08.730Z,18.70
2023-05-18T21:06:44.932Z,20.00
2023-05-18T21:09:12.935Z,20.60
2023-05-18T21:11:40.165Z,21.30
2023-05-18T21:14:07.844Z,21.70
2023-05-18T21:16:35.369Z,23.20
2023-05-18T21:21:44.800Z,26.10
2023-05-18T21:24:11.834Z,26.50
2023-05-18T21:26:39.444Z,26.80
2023-05-18T21:29:07.794Z,27.00
2023-05-18T21:31:35.440Z,27.60
2023-05-18T21:34:02.848Z,29.40
2023-05-18T21:36:36.175Z,29.70
2023-05-18T21:39:04.408Z,29.30
2023-05-18T21:41:32.766Z,29.70
2023-05-18T21:43:59.971Z,29.70
2023-05-18T21:46:27.313Z,30.00
2023-05-18T21:48:54.900Z,31.40
2023-05-18T21:51:22.515Z,31.30
2023-05-18T21:53:52.131Z,31.70
2023-05-18T21:56:19.317Z,33.50
2023-05-18T21:58:46.662Z,34.90
2023-05-18T22:01:13.866Z,35.30
2023-05-18T22:03:41.574Z,36.40
2023-05-18T22:06:09.188Z,37.20
2023-05-18T22:08:36.510Z,38.80
2023-05-18T22:11:07.180Z,39.50
2023-05-18T22:13:34.637Z,40.60
2023-05-18T22:16:02.626Z,41.00
2023-05-18T22:18:29.994Z,42.50
2023-05-18T22:20:57.690Z,43.80
2023-05-18T22:23:25.255Z,44.10
2023-05-18T22:25:52.861Z,43.10
2023-05-18T22:28:22.961Z,46.20
2023-05-18T22:30:50.857Z,47.10
2023-05-18T22:33:18.400Z,47.80
2023-05-18T22:35:46.154Z,47.00
2023-05-18T22:38:13.424Z,45.70
2023-05-18T22:40:46.175Z,46.50
2023-05-18T22:43:13.400Z,47.30
2023-05-18T22:45:40.745Z,48.70
2023-05-18T22:48:08.617Z,49.50
2023-05-18T22:50:36.640Z,50.90
2023-05-18T22:53:05.252Z,51.60
2023-05-18T22:55:33.611Z,51.40
2023-05-18T22:58:11.150Z,50.90
2023-05-18T23:00:41.718Z,51.50
2023-05-18T23:03:09.803Z,52.20
2023-05-18T23:05:41.368Z,52.10
2023-05-18T23:08:08.606Z,51.60
2023-05-18T23:10:35.841Z,50.80
2023-05-18T23:13:03.984Z,51.40
2023-05-18T23:15:40.040Z,52.60
2023-05-18T23:18:09.694Z,52.70
2023-05-18T23:20:40.844Z,53.80
2023-05-18T23:23:09.483Z,54.00
2023-05-18T23:25:36.778Z,54.40
2023-05-18T23:28:04.832Z,55.10
2023-05-18T23:30:35.009Z,56.10
2023-05-18T23:33:03.709Z,57.30
2023-05-18T23:35:31.209Z,58.00
2023-05-18T23:37:58.346Z,58.30
2023-05-18T23:40:26.229Z,58.20
2023-05-18T23:42:53.784Z,58.40
2023-05-18T23:45:21.950Z,59.10
2023-05-18T23:47:49.863Z,61.00
2023-05-18T23:50:17.402Z,62.50
2023-05-18T23:52:44.458Z,63.50
2023-05-18T23:55:12.178Z,63.80
2023-05-18T23:57:39.548Z,64.40
